Honolulu, HI

7:29 AM HST on October 30, 2014 (GMT -1000)
Pacific Heights | Change Station
CLOSE
Current Station
Personal Weather Station
Location: Honolulu, HI
Elevation: 528 ft
Nearby Weather Stations
Active Advisory: High Surf Advisory

Elev 528 ft 21.33 °N, 157.84 °W | Updated 5 seconds ago

Scattered Clouds
Scattered Clouds
75.4 °F
Feels Like 77 °F
N
10.1
Wind Variable Wind from East
Gusts 12.0 mph

Today
High -- | Low -- °F
--% Chance of Precip.
Yesterday
High -- | Low -- °F
Precip. -- in
6:33 AM 5:56 PM
Waxing Crescent, 46% visible
Pressure 30.05 in
Visibility 10.0 miles
Clouds Few 2700 ft
Scattered Clouds 4700 ft
Scattered Clouds 12000 ft
Heat Index 77 °F
Dew Point 67 °F
Humidity 76%
Rainfall 0.13 in
Snow Depth Not available.
UV 0 out of 12
Pollen Not available.
Air Quality Not available.
Flu Activity Not available.
METAR PHNL 301653Z 06008KT 10SM FEW027 SCT047 SCT120 26/20 A3005 RMK AO2 SLP175 T02560200

More Conditions Fewer Conditions

Pressure 30.05 in
Visibility 10.0 miles
Clouds Few 2700 ft
Scattered Clouds 4700 ft
Scattered Clouds 12000 ft
Heat Index 77 °F
Dew Point 67 °F
Humidity 76%
Rainfall 0.13 in
Snow Depth Not available.
UV 0 out of 12
Pollen Not available.
Air Quality Not available.
Flu Activity Not available.
METAR PHNL 301653Z 06008KT 10SM FEW027 SCT047 SCT120 26/20 A3005 RMK AO2 SLP175 T02560200

More Conditions Fewer Conditions

10-Day Weather Forecast

Almanac

Astronomy

Oct. 30, 2014 Rise Set
Actual Time
Civil Twilight
Nautical Twilight
Astronomical Twilight
Moon
Length of Visible Light
Length of Day
Tomorrow will be .
, % of the Moon is Illuminated

Today's Extremes

State Highs State Lows

Community

WunderPhotos

Upload Photos

1,766,409 photos uploaded!

WunderBlogs® & News

Nearby

Air Quality

  Air Quality AQ Index Pollutant
Not available.

Snow Depth

Station Depth Elevation

Earthquake Activity

City Distance Mag. Time & Date
Minimum magnitude displayed is 2.5.

Coastal Water Temperatures

Place Temperature

Nearby Weather Stations